Sand Heads, British Columbia

10:57 AM PDT on July 24, 2016 (GMT -0700)
Steveston | | Change Station

Elev 16 ft 49.14 °N, 123.18 °W | Updated 3 seconds ago

Partly Cloudy
Partly Cloudy
70.0 °F
Feels Like 70.0 °F
N
0.0
Wind Variable Wind from NE
Gusts 0.0 mph

Today
High -- | Low -- °F
--% Chance of Precip.
Yesterday
High -- | Low -- °F
Precip. -- in
Pressure 30.13 in
Visibility 30.0 miles
Clouds Few 2500 ft
Dew Point 56 °F
Humidity 61%
Rainfall 0.00 in
Snow Depth Not available.
5:36 AM 9:02 PM
Waning Gibbous, 74% visible
METAR CYVR 241700Z 23005KT 190V260 30SM FEW025 19/12 A3013 RMK CF1 SLP203 DENSITY ALT 200FT
Pressure 30.13 in
Visibility 30.0 miles
Clouds Few 2500 ft
Dew Point 56 °F
Humidity 61%
Rainfall 0.00 in
Snow Depth Not available.
5:36 AM 9:02 PM
Waning Gibbous, 74% visible
METAR CYVR 241700Z 23005KT 190V260 30SM FEW025 19/12 A3013 RMK CF1 SLP203 DENSITY ALT 200FT

10-Day Weather Forecast

Almanac

Astronomy

Jul. 24, 2016 Rise Set
Actual Time
Civil Twilight
Nautical Twilight
Astronomical Twilight
Moon
Length of Visible Light
Length of Day
Tomorrow will be .
, % of the Moon is Illuminated

Today's Extremes

Country Highs Country Lows

Community

WunderPhotos

Upload Photos

1,927,134 photos uploaded!

WunderBlog® & News

Nearby

Air Quality

  Air Quality AQ Index Pollutant
Not available.

Snow Depth

Station Depth Elevation

Earthquake Activity

City Distance Mag. Time & Date
Minimum magnitude displayed is 2.5.

Coastal Water Temperatures

Place Temperature

Stations

Nearby Weather Stations

Station Location Temp. Windchill Dew Point Humidity Wind Precip. Elev Updated Type
                   

Watches & Warnings

There are currently no watches in effect.